createdAt,value
2022-08-26T00:00:47.291Z,96301.56
2022-08-26T00:01:49.397Z,96302.00
2022-08-26T00:02:51.137Z,96301.50
2022-08-26T00:03:52.889Z,96298.75
2022-08-26T00:04:54.481Z,96306.41
2022-08-26T00:05:56.099Z,96312.16
2022-08-26T00:06:58.097Z,96306.19
2022-08-26T00:08:00.014Z,96312.16
2022-08-26T00:09:02.292Z,96311.41
2022-08-26T00:10:05.765Z,96314.84
2022-08-26T00:11:07.406Z,96320.41
2022-08-26T00:12:12.350Z,96314.53
2022-08-26T00:13:14.372Z,96306.66
2022-08-26T00:14:16.827Z,96313.03
2022-08-26T00:15:20.525Z,96314.19
2022-08-26T00:16:23.804Z,96306.72
2022-08-26T00:17:25.660Z,96303.50
2022-08-26T00:18:28.501Z,96305.53
2022-08-26T00:19:32.717Z,96305.72
2022-08-26T00:20:35.519Z,96306.13
2022-08-26T00:21:37.525Z,96302.16
2022-08-26T00:22:40.483Z,96300.78
2022-08-26T00:23:42.304Z,96307.16
2022-08-26T00:24:47.922Z,96306.41
2022-08-26T00:25:49.908Z,96305.59
2022-08-26T00:26:51.739Z,96309.59
2022-08-26T00:27:53.476Z,96308.88
2022-08-26T00:28:55.072Z,96305.19
2022-08-26T00:29:56.824Z,96312.66
2022-08-26T00:30:59.560Z,96313.44
2022-08-26T00:32:02.727Z,96318.81
2022-08-26T00:33:06.415Z,96317.50
2022-08-26T00:34:11.343Z,96317.41
2022-08-26T00:35:14.293Z,96310.31
2022-08-26T00:36:19.956Z,96306.38
2022-08-26T00:37:22.161Z,96307.94
2022-08-26T00:38:24.807Z,96310.78
2022-08-26T00:39:26.412Z,96302.44
2022-08-26T00:40:33.515Z,96303.09
2022-08-26T00:41:38.225Z,96299.53
2022-08-26T00:42:39.866Z,96300.84
2022-08-26T00:43:48.117Z,96301.47
2022-08-26T00:44:49.904Z,96305.63
2022-08-26T00:46:33.464Z,96303.63
2022-08-26T00:47:47.060Z,96300.59
2022-08-26T00:48:53.636Z,96306.91
2022-08-26T00:49:56.643Z,96304.75
2022-08-26T00:51:22.542Z,96311.97
2022-08-26T00:52:25.066Z,96306.50
2022-08-26T00:53:30.591Z,96301.94
2022-08-26T00:54:42.425Z,96308.16
2022-08-26T00:55:45.013Z,96296.09
2022-08-26T00:56:53.887Z,96298.69
2022-08-26T00:57:56.127Z,96296.03
2022-08-26T00:59:02.543Z,96302.53
2022-08-26T01:00:12.146Z,96310.63
2022-08-26T01:01:15.589Z,96305.06
2022-08-26T01:02:20.990Z,96303.03
2022-08-26T01:03:26.483Z,96303.41
2022-08-26T01:04:29.191Z,96300.69
2022-08-26T01:05:31.047Z,96289.09
2022-08-26T01:06:32.689Z,96294.34
2022-08-26T01:07:35.461Z,96285.91
2022-08-26T01:08:37.079Z,96289.00
2022-08-26T01:09:39.295Z,96296.00
2022-08-26T01:10:42.295Z,96295.91
2022-08-26T01:11:47.266Z,96292.59
2022-08-26T01:13:05.713Z,96289.09
2022-08-26T01:14:09.519Z,96288.03
2022-08-26T01:15:20.376Z,96285.88
2022-08-26T01:16:22.632Z,96288.59
2022-08-26T01:17:24.281Z,96290.44
2022-08-26T01:18:26.744Z,96294.56
2022-08-26T01:19:48.913Z,96297.19
2022-08-26T01:21:27.714Z,96296.25
2022-08-26T01:22:50.390Z,96292.34
2022-08-26T01:23:57.473Z,96292.84
2022-08-26T01:25:03.588Z,96288.44
2022-08-26T01:26:19.577Z,96292.94
2022-08-26T01:27:22.037Z,96292.47
2022-08-26T01:28:29.076Z,96294.38
2022-08-26T01:29:33.792Z,96290.44
2022-08-26T01:30:37.556Z,96300.72
2022-08-26T01:31:45.134Z,96297.81
2022-08-26T01:32:50.467Z,96297.34
2022-08-26T01:34:15.271Z,96302.16
2022-08-26T01:35:17.349Z,96297.56
2022-08-26T01:36:19.908Z,96301.31
2022-08-26T01:37:26.252Z,96296.16
2022-08-26T01:38:27.936Z,96299.22
2022-08-26T01:39:34.697Z,96295.22
2022-08-26T01:40:39.008Z,96297.09
2022-08-26T01:41:42.964Z,96290.78
2022-08-26T01:42:46.881Z,96295.34
2022-08-26T01:43:54.222Z,96284.75
2022-08-26T01:45:18.809Z,96290.09
2022-08-26T01:46:23.814Z,96292.78
2022-08-26T01:47:30.084Z,96285.31
2022-08-26T01:48:34.259Z,96293.38
2022-08-26T01:49:37.819Z,96299.75
2022-08-26T01:50:40.316Z,96300.69
2022-08-26T01:51:44.381Z,96298.69
2022-08-26T01:52:49.878Z,96291.91
2022-08-26T01:53:56.353Z,96288.63
2022-08-26T01:55:01.931Z,96286.91
2022-08-26T01:56:05.351Z,96293.78
2022-08-26T01:57:08.000Z,96286.28
2022-08-26T01:58:20.515Z,96288.94
2022-08-26T01:59:23.542Z,96287.22
2022-08-26T02:00:26.042Z,96293.84
2022-08-26T02:01:29.491Z,96292.25
2022-08-26T02:02:31.994Z,96289.22
2022-08-26T02:03:38.691Z,96290.00
2022-08-26T02:04:51.126Z,96296.81
2022-08-26T02:06:00.942Z,96296.03
2022-08-26T02:07:06.393Z,96293.06
2022-08-26T02:08:09.261Z,96298.59
2022-08-26T02:09:11.672Z,96296.56
2022-08-26T02:10:14.672Z,96295.63
2022-08-26T02:11:18.277Z,96293.63
2022-08-26T02:12:20.531Z,96285.13
2022-08-26T02:13:25.450Z,96293.75
2022-08-26T02:14:34.833Z,96292.44
2022-08-26T02:15:37.963Z,96294.00
2022-08-26T02:16:45.664Z,96289.09
2022-08-26T02:17:47.909Z,96283.00
2022-08-26T02:18:55.891Z,96284.56
2022-08-26T02:19:58.207Z,96279.97
2022-08-26T02:21:00.375Z,96285.56
2022-08-26T02:22:06.408Z,96290.47
2022-08-26T02:23:08.898Z,96295.09
2022-08-26T02:24:17.789Z,96290.97
2022-08-26T02:25:35.372Z,96287.63
2022-08-26T02:26:37.167Z,96287.47
2022-08-26T02:27:40.952Z,96293.63
2022-08-26T02:28:52.389Z,96287.34
2022-08-26T02:30:03.127Z,96279.44
2022-08-26T02:31:05.185Z,96286.19
2022-08-26T02:32:11.045Z,96284.25
2022-08-26T02:33:13.711Z,96287.00
2022-08-26T02:34:31.246Z,96281.91
2022-08-26T02:35:34.952Z,96290.09
2022-08-26T02:36:36.618Z,96297.72
2022-08-26T02:37:38.650Z,96294.28
2022-08-26T02:38:43.581Z,96293.44
2022-08-26T02:39:48.105Z,96291.84
2022-08-26T02:40:49.812Z,96289.88
2022-08-26T02:41:53.085Z,96288.25
2022-08-26T02:42:55.986Z,96292.47
2022-08-26T02:43:58.808Z,96284.59
2022-08-26T02:45:00.604Z,96289.47
2022-08-26T02:46:02.624Z,96278.84
2022-08-26T02:47:04.504Z,96285.78
2022-08-26T02:48:18.834Z,96281.97
2022-08-26T02:49:21.105Z,96289.84
2022-08-26T02:50:23.428Z,96286.75
2022-08-26T02:51:27.922Z,96291.44
2022-08-26T02:52:29.552Z,96285.94
2022-08-26T02:53:32.073Z,96282.13
2022-08-26T02:54:37.468Z,96288.09
2022-08-26T02:55:41.730Z,96287.72
2022-08-26T02:56:44.547Z,96295.19
2022-08-26T02:57:46.796Z,96291.25
2022-08-26T02:58:48.765Z,96295.59
2022-08-26T02:59:50.452Z,96294.22
2022-08-26T03:00:53.675Z,96298.94
2022-08-26T03:01:56.429Z,96294.72
2022-08-26T03:02:59.189Z,96296.69
2022-08-26T03:04:04.651Z,96299.84
2022-08-26T03:05:07.868Z,96291.41
2022-08-26T03:06:09.454Z,96297.22
2022-08-26T03:07:11.038Z,96295.22
2022-08-26T03:08:12.654Z,96292.84
2022-08-26T03:09:18.447Z,96297.13
2022-08-26T03:10:21.174Z,96291.16
2022-08-26T03:11:23.766Z,96294.28
2022-08-26T03:12:26.630Z,96292.72
2022-08-26T03:13:28.256Z,96293.81
2022-08-26T03:14:30.210Z,96300.50
2022-08-26T03:15:32.457Z,96297.50
2022-08-26T03:16:36.535Z,96307.34
2022-08-26T03:17:38.898Z,96305.94
2022-08-26T03:18:41.440Z,96305.59
2022-08-26T03:19:43.248Z,96308.66
2022-08-26T03:20:46.515Z,96300.44
2022-08-26T03:21:48.384Z,96298.38
2022-08-26T03:22:53.268Z,96297.44
2022-08-26T03:23:58.638Z,96297.34
2022-08-26T03:25:00.424Z,96294.88
2022-08-26T03:26:02.611Z,96294.75
2022-08-26T03:27:05.909Z,96293.09
2022-08-26T03:28:09.626Z,96288.28
2022-08-26T03:29:30.149Z,96295.19
2022-08-26T03:30:44.965Z,96294.06
2022-08-26T03:31:47.328Z,96295.06
2022-08-26T03:32:49.420Z,96294.44
2022-08-26T03:33:51.895Z,96291.88
2022-08-26T03:34:54.307Z,96292.34
2022-08-26T03:35:55.933Z,96286.09
2022-08-26T03:36:58.614Z,96289.09
2022-08-26T03:38:01.030Z,96294.81
2022-08-26T03:39:05.901Z,96291.63
2022-08-26T03:40:10.561Z,96291.59
2022-08-26T03:41:12.329Z,96290.09
2022-08-26T03:42:14.993Z,96298.59
2022-08-26T03:43:18.928Z,96300.00
2022-08-26T03:44:20.529Z,96291.72
2022-08-26T03:45:22.301Z,96292.97
2022-08-26T03:46:23.932Z,96293.88
2022-08-26T03:47:28.509Z,96296.28
2022-08-26T03:48:30.084Z,96296.56
2022-08-26T03:49:32.292Z,96293.72
2022-08-26T03:50:35.868Z,96298.47
2022-08-26T03:51:38.943Z,96298.09
2022-08-26T03:52:43.858Z,96294.19
2022-08-26T03:53:47.685Z,96299.91
2022-08-26T03:54:49.998Z,96295.19
2022-08-26T03:55:51.898Z,96306.03
2022-08-26T03:56:53.969Z,96297.81
2022-08-26T03:57:55.875Z,96297.34
2022-08-26T03:58:57.536Z,96295.72
2022-08-26T03:59:59.287Z,96292.53
2022-08-26T04:01:00.933Z,96300.16
2022-08-26T04:02:02.679Z,96304.75
2022-08-26T04:03:04.557Z,96292.19
2022-08-26T04:04:06.509Z,96299.44
2022-08-26T04:05:08.872Z,96291.97
2022-08-26T04:06:10.712Z,96292.59
2022-08-26T04:07:12.499Z,96299.59
2022-08-26T04:08:14.047Z,96293.78
2022-08-26T04:09:20.245Z,96297.28
2022-08-26T04:10:29.309Z,96297.81
2022-08-26T04:11:34.362Z,96303.31
2022-08-26T04:12:38.392Z,96295.13
2022-08-26T04:13:40.014Z,96290.66
2022-08-26T04:14:42.552Z,96294.78
2022-08-26T04:15:44.168Z,96290.03
2022-08-26T04:16:46.502Z,96296.09
2022-08-26T04:17:48.662Z,96292.44
2022-08-26T04:18:50.447Z,96295.22
2022-08-26T04:19:54.804Z,96294.69
2022-08-26T04:20:56.463Z,96291.81
2022-08-26T04:21:59.153Z,96298.84
2022-08-26T04:23:02.576Z,96298.69
2022-08-26T04:24:06.938Z,96293.38
2022-08-26T04:25:10.904Z,96288.09
2022-08-26T04:26:12.545Z,96288.00
2022-08-26T04:27:14.347Z,96287.06
2022-08-26T04:28:15.989Z,96286.13
2022-08-26T04:29:24.559Z,96290.69
2022-08-26T04:30:26.198Z,96285.25
2022-08-26T04:31:27.909Z,96282.88
2022-08-26T04:32:32.576Z,96282.50
2022-08-26T04:33:34.197Z,96288.81
2022-08-26T04:34:43.808Z,96291.34
2022-08-26T04:35:46.591Z,96289.63
2022-08-26T04:36:50.281Z,96288.22
2022-08-26T04:37:51.856Z,96289.88
2022-08-26T04:38:53.521Z,96287.38
2022-08-26T04:39:55.472Z,96294.94
2022-08-26T04:40:57.674Z,96291.72
2022-08-26T04:41:59.952Z,96292.00
2022-08-26T04:43:05.379Z,96286.00
2022-08-26T04:44:07.801Z,96293.84
2022-08-26T04:45:11.610Z,96284.63
2022-08-26T04:46:17.909Z,96281.56
2022-08-26T04:47:21.304Z,96290.63
2022-08-26T04:48:22.993Z,96292.38
2022-08-26T04:49:26.036Z,96281.31
2022-08-26T04:50:29.265Z,96288.13
2022-08-26T04:51:30.875Z,96288.81
2022-08-26T04:52:32.588Z,96290.59
2022-08-26T04:53:34.171Z,96289.88
2022-08-26T04:54:36.115Z,96293.97
2022-08-26T04:55:39.632Z,96296.25
2022-08-26T04:56:44.332Z,96292.06
2022-08-26T04:57:46.307Z,96286.13
2022-08-26T04:58:49.398Z,96296.69
2022-08-26T04:59:51.193Z,96290.38
2022-08-26T05:00:55.220Z,96291.81
2022-08-26T05:01:59.473Z,96293.91
2022-08-26T05:03:01.351Z,96294.31
2022-08-26T05:04:03.606Z,96282.34
2022-08-26T05:05:10.134Z,96284.66
2022-08-26T05:06:12.282Z,96282.06
2022-08-26T05:07:13.873Z,96283.53
2022-08-26T05:08:21.585Z,96278.06
2022-08-26T05:09:23.552Z,96282.81
2022-08-26T05:10:27.249Z,96282.06
2022-08-26T05:11:29.748Z,96286.00
2022-08-26T05:12:31.454Z,96284.22
2022-08-26T05:13:35.357Z,96276.44
2022-08-26T05:14:36.977Z,96283.22
2022-08-26T05:15:39.165Z,96279.50
2022-08-26T05:16:40.986Z,96276.09
2022-08-26T05:17:43.137Z,96285.47
2022-08-26T05:18:46.333Z,96284.00
2022-08-26T05:19:48.617Z,96281.91
2022-08-26T05:20:54.739Z,96287.41
2022-08-26T05:21:56.630Z,96280.63
2022-08-26T05:23:01.523Z,96285.75
2022-08-26T05:24:04.657Z,96279.78
2022-08-26T05:25:06.758Z,96282.75
2022-08-26T05:26:09.091Z,96278.34
2022-08-26T05:27:11.856Z,96276.72
2022-08-26T05:28:16.056Z,96279.22
2022-08-26T05:29:17.645Z,96283.63
2022-08-26T05:30:19.902Z,96281.06
2022-08-26T05:31:24.920Z,96285.00
2022-08-26T05:32:27.528Z,96282.25
2022-08-26T05:33:30.762Z,96280.47
2022-08-26T05:34:32.805Z,96280.22
2022-08-26T05:35:34.992Z,96289.59
2022-08-26T05:36:37.121Z,96287.69
2022-08-26T05:37:39.444Z,96285.19
2022-08-26T05:38:41.919Z,96287.41
2022-08-26T05:39:51.189Z,96289.84
2022-08-26T05:40:53.236Z,96293.72
2022-08-26T05:41:54.867Z,96296.47
2022-08-26T05:42:56.454Z,96293.22
2022-08-26T05:44:00.121Z,96290.72
2022-08-26T05:45:01.959Z,96294.47
2022-08-26T05:46:07.148Z,96301.50
2022-08-26T05:47:08.819Z,96294.56
2022-08-26T05:48:11.234Z,96296.09
2022-08-26T05:49:15.908Z,96296.78
2022-08-26T05:50:21.902Z,96284.75
2022-08-26T05:51:26.190Z,96285.81
2022-08-26T05:52:27.936Z,96290.00
2022-08-26T05:53:29.873Z,96287.06
2022-08-26T05:54:33.942Z,96290.16
2022-08-26T05:55:41.621Z,96284.66
2022-08-26T05:56:43.188Z,96291.00
2022-08-26T05:57:45.452Z,96285.75
2022-08-26T05:58:47.115Z,96288.81
2022-08-26T05:59:48.753Z,96292.88
2022-08-26T06:01:01.941Z,96290.47
2022-08-26T06:02:05.412Z,96292.34
2022-08-26T06:03:08.429Z,96296.94
2022-08-26T06:04:10.982Z,96290.91
2022-08-26T06:05:12.578Z,96281.16
2022-08-26T06:06:20.029Z,96293.16
2022-08-26T06:07:42.416Z,96292.44
2022-08-26T06:08:45.214Z,96280.56
2022-08-26T06:09:46.774Z,96285.16
2022-08-26T06:10:55.185Z,96290.47
2022-08-26T06:11:58.780Z,96289.13
2022-08-26T06:13:09.141Z,96288.09
2022-08-26T06:14:11.158Z,96283.63
2022-08-26T06:15:12.805Z,96285.78
2022-08-26T06:16:19.565Z,96292.84
2022-08-26T06:17:22.005Z,96291.81
2022-08-26T06:18:32.794Z,96288.66
2022-08-26T06:19:34.575Z,96290.28
2022-08-26T06:20:36.903Z,96293.19
2022-08-26T06:21:41.215Z,96296.28
2022-08-26T06:23:00.996Z,96288.75
2022-08-26T06:24:26.987Z,96287.38
2022-08-26T06:25:40.777Z,96292.50
2022-08-26T06:26:46.933Z,96284.16
2022-08-26T06:27:52.257Z,96283.13
2022-08-26T06:28:54.098Z,96289.84
2022-08-26T06:29:55.746Z,96286.16
2022-08-26T06:30:57.367Z,96288.69
2022-08-26T06:32:00.745Z,96290.38
2022-08-26T06:33:02.375Z,96295.72
2022-08-26T06:34:10.516Z,96294.38
2022-08-26T06:35:12.921Z,96294.53
2022-08-26T06:36:21.372Z,96288.53
2022-08-26T06:37:22.947Z,96292.44
2022-08-26T06:38:25.445Z,96284.81
2022-08-26T06:39:28.185Z,96284.19
2022-08-26T06:40:32.994Z,96290.34
2022-08-26T06:41:35.043Z,96291.03
2022-08-26T06:42:38.217Z,96286.63
2022-08-26T06:43:40.782Z,96283.44
2022-08-26T06:44:44.723Z,96277.75
2022-08-26T06:45:47.020Z,96281.72
2022-08-26T06:46:50.463Z,96280.59
2022-08-26T06:47:52.908Z,96286.00
2022-08-26T06:48:57.357Z,96276.63
2022-08-26T06:49:59.016Z,96279.38
2022-08-26T06:51:14.035Z,96284.28
2022-08-26T06:52:17.236Z,96277.28
2022-08-26T06:53:22.827Z,96273.59
2022-08-26T06:54:24.838Z,96279.06
2022-08-26T06:55:27.872Z,96273.47
2022-08-26T06:56:34.763Z,96271.81
2022-08-26T06:57:37.687Z,96279.09
2022-08-26T06:58:42.404Z,96267.47
2022-08-26T06:59:44.049Z,96262.91
2022-08-26T07:00:47.453Z,96271.31
2022-08-26T07:01:50.010Z,96268.41
2022-08-26T07:02:51.862Z,96266.84
2022-08-26T07:03:57.065Z,96261.09
2022-08-26T07:04:58.761Z,96265.44
2022-08-26T07:06:04.307Z,96266.31
2022-08-26T07:07:06.930Z,96271.75
2022-08-26T07:08:11.299Z,96268.72
2022-08-26T07:09:12.931Z,96272.22
2022-08-26T07:10:15.815Z,96268.44
2022-08-26T07:11:19.775Z,96265.44
2022-08-26T07:12:21.671Z,96263.88
2022-08-26T07:13:30.745Z,96272.47
2022-08-26T07:14:34.595Z,96255.97
2022-08-26T07:15:40.625Z,96260.06
2022-08-26T07:16:42.334Z,96253.69
2022-08-26T07:17:44.016Z,96264.25
2022-08-26T07:18:46.530Z,96265.16
2022-08-26T07:19:48.974Z,96270.22
2022-08-26T07:20:50.847Z,96278.09
2022-08-26T07:21:52.441Z,96270.81
2022-08-26T07:22:58.957Z,96273.63
2022-08-26T07:24:01.613Z,96270.31
2022-08-26T07:25:07.550Z,96270.63
2022-08-26T07:26:11.824Z,96265.44
2022-08-26T07:27:15.918Z,96272.47
2022-08-26T07:28:18.777Z,96262.81
2022-08-26T07:29:20.368Z,96257.25
2022-08-26T07:30:26.430Z,96262.22
2022-08-26T07:31:33.580Z,96262.66
2022-08-26T07:32:38.996Z,96268.13
2022-08-26T07:33:41.956Z,96260.63
2022-08-26T07:34:43.966Z,96253.28
2022-08-26T07:35:45.608Z,96259.28
2022-08-26T07:36:47.488Z,96259.22
2022-08-26T07:37:52.823Z,96258.38
2022-08-26T07:38:58.558Z,96255.69
2022-08-26T07:40:01.809Z,96252.47
2022-08-26T07:41:04.629Z,96256.97
2022-08-26T07:42:08.164Z,96255.91
2022-08-26T07:43:10.383Z,96257.31
2022-08-26T07:44:12.291Z,96257.31
2022-08-26T07:45:14.083Z,96250.91
2022-08-26T07:46:20.744Z,96247.56
2022-08-26T07:47:29.109Z,96254.31
2022-08-26T07:48:31.332Z,96247.31
2022-08-26T07:49:36.086Z,96251.16
2022-08-26T07:50:50.212Z,96252.25
2022-08-26T07:51:54.519Z,96250.34
2022-08-26T07:52:56.612Z,96244.19
2022-08-26T07:53:58.654Z,96246.00
2022-08-26T07:55:01.849Z,96252.44
2022-08-26T07:56:05.009Z,96252.69
2022-08-26T07:57:08.426Z,96253.63
2022-08-26T07:58:11.081Z,96254.47
2022-08-26T07:59:13.520Z,96250.47
2022-08-26T08:00:17.168Z,96247.53
2022-08-26T08:01:24.199Z,96262.50
2022-08-26T08:02:26.914Z,96264.16
2022-08-26T08:03:28.539Z,96248.41
2022-08-26T08:04:31.900Z,96257.44
2022-08-26T08:05:34.797Z,96259.22
2022-08-26T08:06:37.458Z,96248.19
2022-08-26T08:07:45.222Z,96250.41
2022-08-26T08:08:48.037Z,96253.53
2022-08-26T08:09:52.566Z,96257.84
2022-08-26T08:10:54.399Z,96248.69
2022-08-26T08:11:56.010Z,96253.41
2022-08-26T08:12:58.653Z,96252.50
2022-08-26T08:14:01.606Z,96242.28
2022-08-26T08:15:04.039Z,96246.91
2022-08-26T08:16:07.793Z,96248.72
2022-08-26T08:17:15.118Z,96241.25
2022-08-26T08:18:17.372Z,96238.06
2022-08-26T08:19:19.055Z,96238.94
2022-08-26T08:20:22.100Z,96233.78
2022-08-26T08:21:25.468Z,96233.44
2022-08-26T08:22:27.282Z,96234.81
2022-08-26T08:23:30.545Z,96233.78
2022-08-26T08:24:35.764Z,96223.78
2022-08-26T08:25:37.353Z,96233.59
2022-08-26T08:26:39.461Z,96234.84
2022-08-26T08:27:45.070Z,96231.41
2022-08-26T08:28:47.784Z,96231.59
2022-08-26T08:29:50.115Z,96230.13
2022-08-26T08:30:51.717Z,96233.84
2022-08-26T08:31:56.887Z,96224.72
2022-08-26T08:33:00.169Z,96220.44
2022-08-26T08:34:02.056Z,96224.56
2022-08-26T08:35:10.930Z,96218.28
2022-08-26T08:36:18.582Z,96224.41
2022-08-26T08:37:23.140Z,96218.03
2022-08-26T08:38:25.798Z,96221.88
2022-08-26T08:39:28.023Z,96215.94
2022-08-26T08:40:29.694Z,96217.19
2022-08-26T08:41:40.335Z,96223.59
2022-08-26T08:43:06.456Z,96219.88
2022-08-26T08:44:20.463Z,96207.16
2022-08-26T08:45:42.362Z,96213.13
2022-08-26T08:46:46.308Z,96213.72
2022-08-26T08:47:54.630Z,96200.56
2022-08-26T08:48:59.853Z,96198.72
2022-08-26T08:50:13.047Z,96189.19
2022-08-26T08:51:41.745Z,96180.28
2022-08-26T08:53:00.592Z,96163.16
2022-08-26T08:54:02.861Z,96187.41
2022-08-26T08:55:11.001Z,96177.59
2022-08-26T08:56:35.221Z,96176.38
2022-08-26T08:58:02.125Z,96174.84
2022-08-26T08:59:20.297Z,96182.53
2022-08-26T09:00:30.124Z,96163.50
2022-08-26T09:01:44.258Z,96173.34
2022-08-26T09:03:18.278Z,96175.94
2022-08-26T09:04:58.022Z,96154.91
2022-08-26T09:06:01.740Z,96158.00
2022-08-26T09:07:06.654Z,96164.59
2022-08-26T09:08:19.872Z,96155.41
2022-08-26T09:09:29.391Z,96142.06
2022-08-26T09:10:31.527Z,96168.13
2022-08-26T09:11:41.475Z,96156.97
2022-08-26T09:12:43.609Z,96152.97
2022-08-26T09:13:51.576Z,96140.91
2022-08-26T09:14:59.325Z,96145.19
2022-08-26T09:16:11.763Z,96152.50
2022-08-26T09:17:44.345Z,96149.44
2022-08-26T09:19:05.206Z,96144.81
2022-08-26T09:20:20.607Z,96110.63
2022-08-26T09:21:25.129Z,96131.59
2022-08-26T09:22:36.504Z,96143.56
2022-08-26T09:23:41.868Z,96138.63
2022-08-26T09:24:48.428Z,96138.31
2022-08-26T09:26:01.119Z,96145.94
2022-08-26T09:27:02.992Z,96145.13
2022-08-26T09:28:13.712Z,96144.16
2022-08-26T09:29:18.328Z,96136.22
2022-08-26T09:30:33.241Z,96132.69
2022-08-26T09:31:37.320Z,96139.75
2022-08-26T09:32:40.509Z,96137.91
2022-08-26T09:33:42.466Z,96137.75
2022-08-26T09:35:07.809Z,96142.44
2022-08-26T09:36:41.252Z,96141.19
2022-08-26T09:38:54.405Z,96136.41
2022-08-26T09:40:22.947Z,96142.81
2022-08-26T09:41:33.906Z,96137.06
2022-08-26T09:42:35.799Z,96148.25
2022-08-26T09:43:37.631Z,96145.34
2022-08-26T09:44:56.739Z,96145.81
2022-08-26T09:46:18.092Z,96147.47
2022-08-26T09:47:32.968Z,96141.19
2022-08-26T09:48:40.694Z,96127.69
2022-08-26T09:49:44.630Z,96130.78
2022-08-26T09:50:58.632Z,96132.63
2022-08-26T09:52:10.766Z,96124.34
2022-08-26T09:53:12.864Z,96128.69
2022-08-26T09:54:30.186Z,96136.09
2022-08-26T09:55:34.765Z,96130.22
2022-08-26T09:56:38.734Z,96129.59
2022-08-26T09:57:54.050Z,96136.00
2022-08-26T09:58:57.003Z,96126.84
2022-08-26T10:00:01.189Z,96134.22
2022-08-26T10:01:08.504Z,96134.09
2022-08-26T10:02:39.475Z,96129.72
2022-08-26T10:03:41.816Z,96113.69
2022-08-26T10:04:56.452Z,96119.88
2022-08-26T10:06:01.765Z,96127.38
2022-08-26T10:07:06.086Z,96122.75
2022-08-26T10:08:31.045Z,96118.47
2022-08-26T10:09:43.404Z,96134.13
2022-08-26T10:10:45.798Z,96123.22
2022-08-26T10:11:53.473Z,96121.41
2022-08-26T10:13:07.907Z,96119.69
2022-08-26T10:14:25.187Z,96121.22
2022-08-26T10:15:28.088Z,96105.91
2022-08-26T10:16:47.047Z,96116.94
2022-08-26T10:17:51.624Z,96118.66
2022-08-26T10:19:13.465Z,96118.88
2022-08-26T10:20:25.888Z,96112.00
2022-08-26T10:21:35.867Z,96119.03
2022-08-26T10:22:51.865Z,96123.03
2022-08-26T10:23:56.624Z,96107.66
2022-08-26T10:25:03.911Z,96120.81
2022-08-26T10:26:11.729Z,96119.41
2022-08-26T10:27:34.862Z,96111.38
2022-08-26T10:28:52.838Z,96106.53
2022-08-26T10:30:00.392Z,96114.13
2022-08-26T10:31:11.480Z,96112.34
2022-08-26T10:32:35.125Z,96102.09
2022-08-26T10:33:39.444Z,96111.38
2022-08-26T10:34:42.367Z,96104.25
2022-08-26T10:35:56.377Z,96101.22
2022-08-26T10:37:13.874Z,96106.19
2022-08-26T10:38:23.203Z,96106.75
2022-08-26T10:39:43.830Z,96107.34
2022-08-26T10:41:00.609Z,96094.00
2022-08-26T10:42:13.916Z,96104.78
2022-08-26T10:43:18.342Z,96110.59
2022-08-26T10:44:21.642Z,96081.78
2022-08-26T10:45:27.357Z,96085.22
2022-08-26T10:46:44.328Z,96100.31
2022-08-26T10:48:00.127Z,96097.72
2022-08-26T10:49:17.363Z,96098.56
2022-08-26T10:50:19.884Z,96094.16
2022-08-26T10:51:32.076Z,96087.56
2022-08-26T10:53:13.728Z,96086.72
2022-08-26T10:54:31.209Z,96073.16
2022-08-26T10:55:39.505Z,96088.91
2022-08-26T10:57:14.166Z,96086.91
2022-08-26T10:58:27.579Z,96089.75
2022-08-26T10:59:58.733Z,96081.19
2022-08-26T11:01:28.472Z,96088.97
2022-08-26T11:02:40.611Z,96083.94
2022-08-26T11:03:55.196Z,96083.81
2022-08-26T11:05:06.892Z,96092.03
2022-08-26T11:06:23.875Z,96087.19
2022-08-26T11:07:46.279Z,96074.59
2022-08-26T11:08:48.158Z,96087.19
2022-08-26T11:09:50.074Z,96093.28
2022-08-26T11:10:51.747Z,96077.66
2022-08-26T11:11:53.359Z,96091.91
2022-08-26T11:13:06.994Z,96068.66
2022-08-26T11:14:08.744Z,96077.94
2022-08-26T11:15:13.336Z,96080.09
2022-08-26T11:16:35.994Z,96080.00
2022-08-26T11:17:44.716Z,96085.13
2022-08-26T11:18:48.730Z,96074.53
2022-08-26T11:20:01.582Z,96081.50
2022-08-26T11:21:44.546Z,96087.25
2022-08-26T11:22:47.979Z,96094.66
2022-08-26T11:23:50.340Z,96080.50
2022-08-26T11:24:52.508Z,96082.78
2022-08-26T11:26:09.828Z,96069.75
2022-08-26T11:27:37.661Z,96091.19
2022-08-26T11:28:48.788Z,96074.81
2022-08-26T11:29:59.837Z,96065.75
2022-08-26T11:31:02.079Z,96065.50
2022-08-26T11:32:06.230Z,96071.28
2022-08-26T11:33:51.349Z,96074.97
2022-08-26T11:34:59.274Z,96070.03
2022-08-26T11:36:12.026Z,96073.69
2022-08-26T11:37:17.610Z,96069.09
2022-08-26T11:38:27.438Z,96076.16
2022-08-26T11:39:31.044Z,96076.84
2022-08-26T11:40:42.023Z,96058.25
2022-08-26T11:41:47.103Z,96074.13
2022-08-26T11:42:55.709Z,96062.09
2022-08-26T11:43:59.457Z,96069.69
2022-08-26T11:45:17.192Z,96075.22
2022-08-26T11:46:37.483Z,96053.84
2022-08-26T11:47:39.157Z,96055.78
2022-08-26T11:48:43.336Z,96063.25
2022-08-26T11:49:45.162Z,96064.03
2022-08-26T11:51:11.722Z,96058.13
2022-08-26T11:52:22.128Z,96067.56
2022-08-26T11:53:25.677Z,96058.59
2022-08-26T11:54:35.104Z,96051.91
2022-08-26T11:55:43.403Z,96053.44
2022-08-26T11:56:48.778Z,96040.97
2022-08-26T11:57:54.492Z,96043.50
2022-08-26T11:58:58.061Z,96052.06
2022-08-26T12:00:01.318Z,96048.34
2022-08-26T12:01:09.625Z,96052.59
2022-08-26T12:02:17.793Z,96058.72
2022-08-26T12:03:23.903Z,96042.63
2022-08-26T12:04:30.290Z,96044.84
2022-08-26T12:05:42.175Z,96046.94
2022-08-26T12:06:51.045Z,96043.34
2022-08-26T12:07:54.395Z,96038.97
2022-08-26T12:09:00.006Z,96039.94
2022-08-26T12:10:04.666Z,96036.13
2022-08-26T12:11:10.298Z,96034.34
2022-08-26T12:12:13.533Z,96052.19
2022-08-26T12:13:26.478Z,96027.97
2022-08-26T12:14:28.693Z,96038.28
2022-08-26T12:15:32.134Z,96034.06
2022-08-26T12:16:37.657Z,96035.38
2022-08-26T12:17:41.950Z,96026.16
2022-08-26T12:18:44.819Z,96027.41
2022-08-26T12:19:46.573Z,96039.72
2022-08-26T12:20:48.847Z,96034.75
2022-08-26T12:21:50.816Z,96029.56
2022-08-26T12:22:53.139Z,96034.19
2022-08-26T12:24:00.536Z,96030.72
2022-08-26T12:25:06.461Z,96040.13
2022-08-26T12:26:20.755Z,96038.16
2022-08-26T12:27:24.045Z,96032.09
2022-08-26T12:28:25.696Z,96039.91
2022-08-26T12:29:31.231Z,96036.44
2022-08-26T12:30:32.989Z,96035.22
2022-08-26T12:31:38.513Z,96034.38
2022-08-26T12:32:57.848Z,96026.63
2022-08-26T12:34:02.531Z,96035.34
2022-08-26T12:36:12.045Z,96037.25
2022-08-26T12:37:15.430Z,96033.50
2022-08-26T12:38:17.433Z,96034.41
2022-08-26T12:39:29.726Z,96028.94
2022-08-26T12:40:31.357Z,96020.47
2022-08-26T12:41:47.885Z,96025.72
2022-08-26T12:42:50.075Z,96031.03
2022-08-26T12:43:51.699Z,96035.38
2022-08-26T12:45:06.562Z,96011.13
2022-08-26T12:46:12.617Z,96031.03
2022-08-26T12:47:43.382Z,96021.16
2022-08-26T12:48:49.057Z,96028.16
2022-08-26T12:50:01.151Z,96012.25
2022-08-26T12:51:03.698Z,96019.31
2022-08-26T12:52:09.732Z,96021.06
2022-08-26T12:53:11.242Z,96022.59
2022-08-26T12:54:14.470Z,96017.78
2022-08-26T12:55:32.992Z,96020.97
2022-08-26T12:56:41.099Z,96011.41
2022-08-26T12:57:42.697Z,96012.91
2022-08-26T12:58:44.493Z,96015.00
2022-08-26T12:59:46.204Z,96011.22
2022-08-26T13:00:54.078Z,96005.59